Time;durP1;ratioP1;P1;durP2;ratioP2;P2;SDS_P1;SDS_P2;PMS_P1;PMS_P2;Temp;Humidity;BMP_temperature;BMP_pressure;BME280_temperature;BME280_humidity;BME280_pressure;Samples;Min_cycle;Max_cycle;Signal;HPM_P1;HPM_P2
2023/09/28 00:01:39;;;;;;;247.65;149.38;;;26.80;99.90;;;;;;5055260;28;20032;-67
2023/09/28 00:04:06;;;;;;;248.20;153.90;;;26.80;99.90;;;;;;5055282;28;20021;-66
2023/09/28 00:06:32;;;;;;;246.32;150.80;;;26.90;99.90;;;;;;5054980;28;20033;-66
2023/09/28 00:08:59;;;;;;;238.95;151.35;;;26.90;99.90;;;;;;5055201;28;20069;-65
2023/09/28 00:11:26;;;;;;;233.82;150.73;;;27.00;99.90;;;;;;5055073;28;20366;-66
2023/09/28 00:13:52;;;;;;;248.63;150.82;;;27.10;99.90;;;;;;5054841;28;20068;-66
2023/09/28 00:16:19;;;;;;;258.10;151.50;;;27.20;99.90;;;;;;5055107;28;20024;-67
2023/09/28 00:18:46;;;;;;;237.18;146.82;;;27.20;99.90;;;;;;5055051;28;20381;-67
2023/09/28 00:21:12;;;;;;;237.95;146.05;;;27.30;99.90;;;;;;5054781;28;20032;-66
2023/09/28 00:23:39;;;;;;;241.40;142.75;;;27.30;99.90;;;;;;5054809;28;20576;-66
2023/09/28 00:26:07;;;;;;;217.23;134.77;;;27.30;99.90;;;;;;5054847;28;20036;-67
2023/09/28 00:28:33;;;;;;;211.40;130.68;;;27.40;99.90;;;;;;5054696;28;20551;-66
2023/09/28 00:31:04;;;;;;;228.27;141.18;;;27.40;99.90;;;;;;5054701;28;20039;-67
2023/09/28 00:33:31;;;;;;;246.40;154.02;;;27.50;99.90;;;;;;5054574;28;20437;-67
2023/09/28 00:35:57;;;;;;;230.48;145.07;;;27.50;99.90;;;;;;5054766;28;20025;-66
2023/09/28 00:38:24;;;;;;;243.18;148.75;;;27.50;99.90;;;;;;5054741;28;20028;-67
2023/09/28 00:40:51;;;;;;;219.02;141.35;;;27.60;99.90;;;;;;5054567;28;20025;-66
2023/09/28 00:43:26;;;;;;;223.50;142.90;;;27.70;99.90;;;;;;5054621;28;20017;-67
2023/09/28 00:45:52;;;;;;;213.05;138.75;;;27.80;99.90;;;;;;5054479;28;20025;-67
2023/09/28 00:48:20;;;;;;;196.00;122.70;;;27.80;99.90;;;;;;5054552;28;20028;-67
2023/09/28 00:50:46;;;;;;;183.85;114.40;;;27.90;99.90;;;;;;5054170;28;20079;-67
2023/09/28 00:53:14;;;;;;;179.13;107.78;;;28.00;99.90;;;;;;5054309;28;20056;-67
2023/09/28 00:55:43;;;;;;;158.25;98.32;;;28.10;99.90;;;;;;5054384;28;20029;-68
2023/09/28 00:58:10;;;;;;;150.30;97.68;;;28.20;99.90;;;;;;5053995;28;20067;-67
2023/09/28 01:00:38;;;;;;;166.63;103.30;;;28.20;99.90;;;;;;5054414;28;20017;-67
2023/09/28 01:03:06;;;;;;;149.57;98.00;;;28.20;99.90;;;;;;5054111;28;20025;-67
2023/09/28 01:05:34;;;;;;;152.65;92.65;;;28.30;99.90;;;;;;5054023;28;20020;-67
2023/09/28 01:08:12;;;;;;;156.57;94.43;;;28.50;99.90;;;;;;5053995;28;20047;-67
2023/09/28 01:10:41;;;;;;;132.00;85.45;;;28.50;99.90;;;;;;5066974;28;20402;-67
2023/09/28 01:13:12;;;;;;;135.93;85.18;;;28.50;99.90;;;;;;5073916;28;20086;-66
2023/09/28 01:15:40;;;;;;;134.05;86.80;;;28.60;99.90;;;;;;5074122;28;20043;-67
2023/09/28 01:18:10;;;;;;;130.63;80.72;;;28.70;99.90;;;;;;5073676;28;20024;-67
2023/09/28 01:20:37;;;;;;;122.35;77.97;;;28.80;99.90;;;;;;5073782;28;20039;-67
2023/09/28 01:23:06;;;;;;;135.63;81.00;;;28.90;99.90;;;;;;5073601;28;20024;-68
2023/09/28 01:25:33;;;;;;;126.10;78.47;;;28.90;99.90;;;;;;5073658;28;20020;-67
2023/09/28 01:28:01;;;;;;;123.40;76.50;;;29.00;99.90;;;;;;5073650;28;20031;-67
2023/09/28 01:30:28;;;;;;;129.40;72.30;;;29.10;99.90;;;;;;5073662;28;20055;-67
2023/09/28 01:32:54;;;;;;;112.13;66.07;;;29.20;99.90;;;;;;5073473;28;20107;-67
2023/09/28 01:35:22;;;;;;;112.25;65.22;;;29.20;99.90;;;;;;5073621;28;20052;-68
2023/09/28 01:37:52;;;;;;;102.97;63.13;;;29.30;99.90;;;;;;5073518;28;20032;-67
2023/09/28 01:40:19;;;;;;;124.32;68.63;;;29.40;99.90;;;;;;5073469;28;20044;-68
2023/09/28 01:42:45;;;;;;;120.60;69.03;;;29.50;99.90;;;;;;5067087;28;20013;-67
2023/09/28 01:45:12;;;;;;;109.72;68.45;;;29.60;99.90;;;;;;5053442;28;20060;-66
2023/09/28 01:47:39;;;;;;;124.30;68.93;;;29.60;99.90;;;;;;5071442;28;20036;-66
2023/09/28 01:50:06;;;;;;;122.88;73.90;;;29.70;99.90;;;;;;5073390;28;20072;-66
2023/09/28 01:52:33;;;;;;;119.57;66.72;;;29.80;99.90;;;;;;5055085;28;20048;-66
2023/09/28 01:55:00;;;;;;;112.28;65.47;;;29.90;99.90;;;;;;5053281;28;20501;-65
2023/09/28 01:57:26;;;;;;;124.43;73.50;;;29.90;99.90;;;;;;5053237;28;20037;-65
2023/09/28 02:12:22;;;;;;;159.68;93.30;;;30.00;99.90;;;;;;5121863;27;20412;-64
2023/09/28 02:14:49;;;;;;;185.45;106.35;;;30.80;99.90;;;;;;5131217;27;20456;-65
2023/09/28 02:17:15;;;;;;;188.48;109.85;;;30.70;99.90;;;;;;5130435;27;20061;-65
2023/09/28 02:19:42;;;;;;;204.20;118.53;;;30.70;99.90;;;;;;5130899;27;20031;-65
2023/09/28 02:22:09;;;;;;;249.85;135.57;;;30.80;99.90;;;;;;5131367;27;20023;-65
2023/09/28 02:24:35;;;;;;;338.98;178.73;;;30.90;99.90;;;;;;5131120;27;20015;-64
2023/09/28 02:27:02;;;;;;;260.85;139.50;;;30.90;99.90;;;;;;5130846;27;20064;-64
2023/09/28 02:29:29;;;;;;;214.73;119.45;;;30.80;99.90;;;;;;5131246;27;20031;-65
2023/09/28 02:31:55;;;;;;;230.63;125.50;;;30.90;99.90;;;;;;5131076;27;20015;-66
2023/09/28 02:34:22;;;;;;;276.15;141.93;;;31.00;99.90;;;;;;5130903;27;20020;-64
2023/09/28 02:36:48;;;;;;;283.38;147.18;;;31.00;99.90;;;;;;5130864;27;20028;-65
2023/09/28 02:39:15;;;;;;;320.75;163.27;;;31.10;99.90;;;;;;5130809;27;20024;-66
2023/09/28 02:41:41;;;;;;;342.65;178.23;;;31.10;99.90;;;;;;5130803;27;20019;-65
2023/09/28 02:44:08;;;;;;;362.83;192.32;;;31.10;99.90;;;;;;5131008;27;20024;-66
2023/09/28 02:46:35;;;;;;;344.63;176.57;;;31.20;99.90;;;;;;5131099;27;20028;-64
2023/09/28 02:49:02;;;;;;;335.65;169.02;;;31.30;99.90;;;;;;5130634;27;20160;-65
2023/09/28 02:51:29;;;;;;;330.52;175.20;;;31.30;99.90;;;;;;5130381;27;20023;-65
2023/09/28 02:53:55;;;;;;;290.05;147.20;;;31.30;99.90;;;;;;5130662;27;20594;-65
2023/09/28 02:56:22;;;;;;;259.65;134.35;;;31.40;99.90;;;;;;5130567;27;20028;-65
2023/09/28 02:58:48;;;;;;;262.45;134.32;;;31.50;99.90;;;;;;5130344;27;20027;-65
2023/09/28 03:01:16;;;;;;;238.00;129.77;;;31.60;99.90;;;;;;5130383;27;20023;-65
2023/09/28 03:03:42;;;;;;;237.43;127.00;;;31.60;99.90;;;;;;5130317;27;20388;-67
2023/09/28 03:06:09;;;;;;;227.73;124.40;;;31.60;99.90;;;;;;5116995;27;20016;-67
2023/09/28 03:08:35;;;;;;;226.25;121.05;;;31.70;99.90;;;;;;5100062;28;20377;-67
2023/09/28 03:11:02;;;;;;;231.30;119.75;;;31.80;99.90;;;;;;5097826;28;20048;-67
2023/09/28 03:13:29;;;;;;;234.20;120.05;;;31.90;99.90;;;;;;5086501;28;20028;-63
2023/09/28 03:15:55;;;;;;;223.63;119.90;;;32.00;99.90;;;;;;5096089;28;20020;-64
2023/09/28 03:18:22;;;;;;;217.82;118.65;;;32.10;99.90;;;;;;5096049;28;20440;-65
2023/09/28 03:20:48;;;;;;;229.90;120.68;;;32.10;99.80;;;;;;5095725;28;20039;-65
2023/09/28 03:23:15;;;;;;;233.75;128.68;;;32.20;99.90;;;;;;5096005;28;20024;-65
2023/09/28 03:25:45;;;;;;;266.50;134.63;;;32.20;99.90;;;;;;5095861;28;20046;-65
2023/09/28 03:28:13;;;;;;;265.50;136.98;;;32.30;99.70;;;;;;5095660;28;20181;-65
2023/09/28 03:30:40;;;;;;;271.95;140.13;;;32.40;99.50;;;;;;5095983;28;20028;-65
2023/09/28 03:33:06;;;;;;;274.00;140.20;;;32.40;99.70;;;;;;5096016;28;20032;-66
2023/09/28 03:35:33;;;;;;;259.17;138.73;;;32.40;99.70;;;;;;5095480;28;20501;-66
2023/09/28 03:37:59;;;;;;;264.25;145.63;;;32.50;99.50;;;;;;5095562;28;20103;-66
2023/09/28 03:40:33;;;;;;;266.17;143.02;;;32.60;98.50;;;;;;5095370;28;20134;-66
2023/09/28 03:43:00;;;;;;;251.18;137.30;;;32.60;98.50;;;;;;5099077;28;20382;-66
2023/09/28 03:45:27;;;;;;;239.90;129.25;;;32.60;98.80;;;;;;5107074;27;20020;-66
2023/09/28 03:47:54;;;;;;;231.90;125.30;;;32.70;98.40;;;;;;5115910;28;20019;-65
2023/09/28 03:50:23;;;;;;;233.93;127.40;;;32.80;98.20;;;;;;5115610;28;20478;-66
2023/09/28 03:52:50;;;;;;;244.75;136.88;;;32.80;98.40;;;;;;5115731;27;20036;-66
2023/09/28 03:55:19;;;;;;;224.43;124.22;;;32.90;98.10;;;;;;5115762;28;20469;-65
2023/09/28 03:57:46;;;;;;;223.13;123.75;;;33.00;98.20;;;;;;5115505;28;20396;-65
2023/09/28 04:00:17;;;;;;;229.48;124.38;;;33.10;98.20;;;;;;5115509;28;20032;-65
2023/09/28 04:02:46;;;;;;;204.75;113.47;;;33.10;98.10;;;;;;5115409;28;20094;-64
2023/09/28 04:05:13;;;;;;;166.10;98.05;;;33.10;98.00;;;;;;5115485;28;20115;-66
2023/09/28 04:07:41;;;;;;;187.82;118.07;;;33.20;97.70;;;;;;5098276;28;20051;-64
2023/09/28 04:10:09;;;;;;;174.32;95.88;;;33.20;97.70;;;;;;5094777;28;20065;-63
2023/09/28 04:12:36;;;;;;;155.23;92.65;;;33.30;97.30;;;;;;5094917;28;20439;-64
2023/09/28 04:15:03;;;;;;;140.20;82.15;;;33.40;97.30;;;;;;5094924;28;20027;-64
2023/09/28 04:17:30;;;;;;;138.50;82.53;;;33.40;96.40;;;;;;5094707;28;20032;-64
2023/09/28 04:19:57;;;;;;;140.70;89.75;;;33.40;96.50;;;;;;5095004;28;20032;-65
2023/09/28 04:22:24;;;;;;;147.32;90.32;;;33.50;96.20;;;;;;5094764;28;20024;-63
2023/09/28 04:24:50;;;;;;;148.88;90.03;;;33.60;95.40;;;;;;5093772;28;20020;-63
2023/09/28 04:27:17;;;;;;;141.43;92.20;;;33.60;94.90;;;;;;5094673;28;20020;-64
2023/09/28 04:29:44;;;;;;;148.80;95.10;;;33.70;95.00;;;;;;5094615;28;20436;-64
2023/09/28 04:32:11;;;;;;;153.80;96.30;;;33.80;94.80;;;;;;5094997;28;20028;-62
2023/09/28 04:34:39;;;;;;;146.13;93.45;;;33.90;94.40;;;;;;5094501;28;20107;-64
2023/09/28 04:37:06;;;;;;;157.10;98.20;;;34.00;94.20;;;;;;5094852;28;20030;-65
2023/09/28 04:39:34;;;;;;;159.80;98.22;;;34.00;94.40;;;;;;5094352;28;20024;-65
2023/09/28 04:42:00;;;;;;;133.15;83.72;;;34.00;94.60;;;;;;5094318;28;20099;-66
2023/09/28 04:44:27;;;;;;;138.75;91.25;;;34.00;94.30;;;;;;5094400;28;20069;-65
2023/09/28 04:46:54;;;;;;;122.78;81.63;;;34.10;94.50;;;;;;5094292;28;20028;-66
2023/09/28 04:49:21;;;;;;;99.55;63.88;;;34.00;94.70;;;;;;5094171;28;20016;-66
2023/09/28 04:51:48;;;;;;;105.50;68.22;;;34.10;93.90;;;;;;5094540;28;20071;-67
2023/09/28 04:54:14;;;;;;;100.47;67.60;;;34.20;93.90;;;;;;5094134;28;20032;-67
2023/09/28 04:56:43;;;;;;;97.70;64.75;;;34.20;93.00;;;;;;5093984;28;20024;-65
2023/09/28 04:59:10;;;;;;;98.20;63.67;;;34.10;93.80;;;;;;5078715;28;20047;-66
2023/09/28 05:01:36;;;;;;;94.00;59.83;;;34.00;93.10;;;;;;5073657;28;20059;-66
2023/09/28 05:04:03;;;;;;;88.00;58.03;;;34.00;93.40;;;;;;5073774;28;20032;-66
2023/09/28 05:06:30;;;;;;;85.63;58.03;;;34.10;93.20;;;;;;5073536;28;20154;-64
2023/09/28 05:08:56;;;;;;;89.03;59.80;;;34.10;92.80;;;;;;5073674;28;20027;-66
2023/09/28 05:11:22;;;;;;;82.82;56.75;;;34.10;92.70;;;;;;5073275;28;20056;-67
2023/09/28 05:13:51;;;;;;;112.30;59.90;;;34.20;92.70;;;;;;5073644;28;20082;-66
2023/09/28 05:16:18;;;;;;;82.28;53.22;;;34.20;92.10;;;;;;5073532;28;20125;-67
2023/09/28 05:18:45;;;;;;;73.40;47.78;;;34.30;92.00;;;;;;5073347;28;20020;-66
2023/09/28 05:21:12;;;;;;;81.65;50.78;;;34.30;91.70;;;;;;5073437;28;20110;-70
2023/09/28 05:23:39;;;;;;;80.30;52.55;;;34.30;91.90;;;;;;5073391;28;20052;-65
2023/09/28 05:26:06;;;;;;;87.03;56.67;;;34.40;91.70;;;;;;5073474;28;20462;-67
2023/09/28 05:28:32;;;;;;;85.93;55.80;;;34.40;91.20;;;;;;5073460;28;20089;-66
2023/09/28 05:30:59;;;;;;;80.78;55.50;;;34.50;91.30;;;;;;5073382;28;20040;-67
2023/09/28 05:33:26;;;;;;;98.90;67.40;;;34.50;91.20;;;;;;5073168;28;20056;-67
2023/09/28 05:35:53;;;;;;;84.47;53.53;;;34.50;90.60;;;;;;5074514;28;20040;-66
2023/09/28 05:38:19;;;;;;;81.97;57.75;;;34.60;90.20;;;;;;5073616;28;20375;-67
2023/09/28 05:40:46;;;;;;;102.55;69.90;;;34.60;90.20;;;;;;5073108;28;20383;-69
2023/09/28 05:43:13;;;;;;;134.38;89.88;;;34.70;90.50;;;;;;5073363;28;20016;-67
2023/09/28 05:45:39;;;;;;;137.38;94.13;;;34.70;89.70;;;;;;5073211;28;20512;-67
2023/09/28 05:48:06;;;;;;;137.68;92.10;;;34.70;89.30;;;;;;5072939;28;20065;-66
2023/09/28 05:50:32;;;;;;;128.15;89.90;;;34.70;89.00;;;;;;5073103;28;20447;-67
2023/09/28 05:53:00;;;;;;;128.73;90.10;;;34.80;88.20;;;;;;5073073;28;20056;-66
2023/09/28 05:55:27;;;;;;;138.30;98.05;;;34.80;88.50;;;;;;5082183;28;20077;-65
2023/09/28 05:57:53;;;;;;;169.27;118.30;;;34.80;89.20;;;;;;5089296;28;20037;-65
2023/09/28 06:00:20;;;;;;;155.23;107.45;;;34.90;87.90;;;;;;5087158;28;20111;-65
2023/09/28 06:02:46;;;;;;;185.30;119.45;;;34.90;88.80;;;;;;5087407;28;20020;-64
2023/09/28 06:05:13;;;;;;;199.25;138.68;;;34.90;89.10;;;;;;5087661;28;20126;-65
2023/09/28 06:07:40;;;;;;;204.02;137.18;;;34.90;86.80;;;;;;5086974;28;20027;-65
2023/09/28 06:10:08;;;;;;;192.90;133.10;;;34.80;87.10;;;;;;5087237;28;20031;-63
2023/09/28 06:12:35;;;;;;;197.45;125.82;;;34.80;87.70;;;;;;5086863;28;20032;-65
2023/09/28 06:15:04;;;;;;;259.08;154.02;;;34.80;88.30;;;;;;5084871;28;20116;-65
2023/09/28 06:17:30;;;;;;;230.35;147.32;;;34.80;88.40;;;;;;5075548;28;20082;-67
2023/09/28 06:19:57;;;;;;;672.83;163.57;;;34.80;87.40;;;;;;5079210;28;20547;-66
2023/09/28 06:22:24;;;;;;;334.38;141.48;;;34.70;88.50;;;;;;5079298;28;20475;-66
2023/09/28 06:24:50;;;;;;;232.45;126.93;;;34.70;88.70;;;;;;5078991;28;20035;-66
2023/09/28 06:27:17;;;;;;;209.25;128.77;;;34.70;88.60;;;;;;5085985;28;20025;-66
2023/09/28 06:29:44;;;;;;;191.88;130.85;;;34.80;88.50;;;;;;5078926;28;20060;-66
2023/09/28 06:32:11;;;;;;;437.83;144.80;;;34.80;88.00;;;;;;5080633;28;20107;-67
2023/09/28 06:34:37;;;;;;;217.63;144.77;;;34.80;89.10;;;;;;5083261;28;20040;-65
2023/09/28 06:37:04;;;;;;;210.35;134.10;;;34.80;86.40;;;;;;5083533;28;20023;-67
2023/09/28 06:39:30;;;;;;;240.18;130.40;;;34.80;87.00;;;;;;5082077;28;20016;-65
2023/09/28 06:41:57;;;;;;;190.50;131.15;;;34.80;87.60;;;;;;5081092;28;20025;-67
2023/09/28 06:44:23;;;;;;;218.55;151.52;;;34.90;88.00;;;;;;5082911;28;20672;-67
2023/09/28 06:46:50;;;;;;;218.45;148.38;;;35.00;86.20;;;;;;5087379;28;20035;-66
2023/09/28 06:49:16;;;;;;;217.10;139.90;;;34.90;87.40;;;;;;5089354;28;20378;-65
2023/09/28 06:51:43;;;;;;;202.98;141.70;;;35.00;86.90;;;;;;5091656;28;20026;-65
2023/09/28 06:54:09;;;;;;;215.02;147.52;;;34.80;86.00;;;;;;5094364;28;20032;-65
2023/09/28 06:56:36;;;;;;;212.15;142.75;;;34.80;87.40;;;;;;5084505;28;20490;-64
2023/09/28 06:59:03;;;;;;;189.88;136.13;;;34.80;86.60;;;;;;5084110;28;20437;-65
2023/09/28 07:01:30;;;;;;;214.45;150.65;;;34.90;86.80;;;;;;5091394;28;20474;-67
2023/09/28 07:03:57;;;;;;;233.40;161.85;;;35.00;86.40;;;;;;5085013;28;20041;-65
2023/09/28 07:06:24;;;;;;;232.02;162.10;;;35.10;84.90;;;;;;5088506;28;20035;-65
2023/09/28 07:08:52;;;;;;;241.77;170.27;;;35.10;86.20;;;;;;5094094;28;20032;-64
2023/09/28 07:11:19;;;;;;;251.75;178.32;;;35.10;86.50;;;;;;5083479;28;20402;-66
2023/09/28 07:13:46;;;;;;;276.52;190.25;;;35.10;86.30;;;;;;5083955;28;20532;-65
2023/09/28 07:16:12;;;;;;;250.90;174.73;;;35.20;85.40;;;;;;5083278;28;20378;-65
2023/09/28 07:18:39;;;;;;;231.48;159.15;;;35.10;86.30;;;;;;5083189;28;20374;-65
2023/09/28 07:21:05;;;;;;;217.85;149.05;;;35.10;87.00;;;;;;5082584;28;20103;-65
2023/09/28 07:23:32;;;;;;;229.38;151.15;;;35.10;86.30;;;;;;5083624;28;20028;-65
2023/09/28 07:26:00;;;;;;;222.57;142.55;;;35.10;84.90;;;;;;5080555;28;20040;-64
2023/09/28 07:28:28;;;;;;;214.35;141.50;;;35.10;86.10;;;;;;5077631;28;20162;-67
2023/09/28 07:30:54;;;;;;;208.20;138.70;;;35.00;85.70;;;;;;5077584;28;20031;-66
2023/09/28 07:33:21;;;;;;;213.80;140.02;;;35.00;85.40;;;;;;5077431;28;20012;-63
2023/09/28 07:35:48;;;;;;;216.52;149.02;;;35.00;86.90;;;;;;5087226;28;20024;-65
2023/09/28 07:38:15;;;;;;;199.85;136.13;;;34.90;85.10;;;;;;5087059;28;20024;-66
2023/09/28 07:40:42;;;;;;;234.73;153.63;;;34.80;86.80;;;;;;5084445;28;20032;-67
2023/09/28 07:43:08;;;;;;;239.23;156.80;;;34.90;85.40;;;;;;5089907;28;20020;-71
2023/09/28 07:45:36;;;;;;;246.52;158.70;;;34.90;86.60;;;;;;5081885;28;20016;-66
2023/09/28 07:48:05;;;;;;;239.10;155.88;;;35.00;85.80;;;;;;5085153;28;20024;-64
2023/09/28 07:50:31;;;;;;;227.13;151.65;;;35.00;86.80;;;;;;5084282;28;20099;-64
2023/09/28 07:52:59;;;;;;;225.35;146.30;;;35.00;86.10;;;;;;5084879;28;20387;-64
2023/09/28 07:55:25;;;;;;;231.52;154.25;;;35.00;85.70;;;;;;5084983;28;20028;-64
2023/09/28 07:57:52;;;;;;;237.38;157.45;;;35.00;86.00;;;;;;5089248;28;20032;-63
2023/09/28 08:00:18;;;;;;;235.07;150.90;;;35.00;86.80;;;;;;5084854;28;20017;-62
2023/09/28 08:02:45;;;;;;;226.80;146.18;;;34.90;87.80;;;;;;5084765;28;20058;-66
2023/09/28 08:05:12;;;;;;;212.55;142.00;;;34.90;86.70;;;;;;5083694;28;20021;-65
2023/09/28 08:07:39;;;;;;;203.55;138.43;;;34.90;86.60;;;;;;5087951;28;20032;-64
2023/09/28 08:10:09;;;;;;;210.07;142.23;;;34.90;85.10;;;;;;5083756;28;20031;-65
2023/09/28 08:12:37;;;;;;;214.90;138.55;;;34.90;87.00;;;;;;5084718;28;20107;-65
2023/09/28 08:15:05;;;;;;;236.77;154.23;;;34.90;86.50;;;;;;5089472;28;20107;-67
2023/09/28 08:17:33;;;;;;;230.00;149.23;;;34.90;85.60;;;;;;5085785;28;20119;-67
2023/09/28 08:20:00;;;;;;;229.07;152.15;;;34.80;87.10;;;;;;5087144;28;20036;-67
2023/09/28 08:22:26;;;;;;;249.25;166.32;;;34.90;86.70;;;;;;5090841;28;20024;-66
2023/09/28 08:24:53;;;;;;;290.48;187.15;;;34.90;85.80;;;;;;5087068;28;20031;-67
2023/09/28 08:27:19;;;;;;;296.77;192.27;;;34.80;85.00;;;;;;5088209;28;20477;-67
2023/09/28 08:29:46;;;;;;;301.55;195.40;;;34.80;85.50;;;;;;5087293;28;20035;-64
2023/09/28 08:32:13;;;;;;;289.30;186.90;;;34.70;85.10;;;;;;5087223;28;20465;-65
2023/09/28 08:34:39;;;;;;;263.40;168.95;;;34.70;85.70;;;;;;5086713;28;20387;-64
2023/09/28 08:37:06;;;;;;;248.60;163.60;;;34.60;86.30;;;;;;5079952;28;20078;-66
2023/09/28 08:39:32;;;;;;;247.27;160.20;;;34.70;87.20;;;;;;5078343;28;20028;-66
2023/09/28 08:42:02;;;;;;;224.73;147.80;;;34.80;87.90;;;;;;5078192;28;20040;-67
2023/09/28 08:44:34;;;;;;;219.05;145.02;;;34.80;86.20;;;;;;5078078;28;20035;-65
2023/09/28 08:47:00;;;;;;;;;;;34.70;84.90;;;;;;5079204;28;20021;-68
2023/09/28 08:49:29;;;;;;;241.70;159.35;;;34.70;86.20;;;;;;5080874;28;20337;-68
2023/09/28 08:51:57;;;;;;;252.60;162.07;;;34.70;85.20;;;;;;5086569;28;20039;-64
2023/09/28 08:54:24;;;;;;;260.33;166.32;;;34.60;86.90;;;;;;5093740;28;20028;-66
2023/09/28 08:56:52;;;;;;;270.80;176.15;;;34.60;87.60;;;;;;5091242;28;20047;-65
2023/09/28 08:59:20;;;;;;;280.83;183.35;;;34.60;87.60;;;;;;5094022;28;20446;-66
2023/09/28 09:01:47;;;;;;;269.05;177.10;;;34.60;86.00;;;;;;5094293;28;20073;-66
2023/09/28 09:04:14;;;;;;;280.58;178.25;;;34.50;87.00;;;;;;5091840;28;20055;-64
2023/09/28 09:06:42;;;;;;;264.33;169.43;;;34.40;86.00;;;;;;5090016;28;20062;-65
2023/09/28 09:09:14;;;;;;;231.95;149.48;;;34.30;86.40;;;;;;5082082;28;20024;-63
2023/09/28 09:11:54;;;;;;;236.98;148.70;;;34.30;87.50;;;;;;5084225;28;20053;-63
2023/09/28 09:14:27;;;;;;;385.92;267.35;;;34.30;88.20;;;;;;5082118;28;20036;-65
2023/09/28 09:16:53;;;;;;;216.77;137.27;;;34.30;87.70;;;;;;5083974;28;20020;-67
2023/09/28 09:19:20;;;;;;;203.75;139.63;;;34.30;88.90;;;;;;5084215;28;20483;-67
2023/09/28 09:21:46;;;;;;;224.55;135.38;;;34.30;88.40;;;;;;5082136;28;20052;-64
2023/09/28 09:24:14;;;;;;;213.82;129.63;;;34.30;88.90;;;;;;5083429;28;20016;-67
2023/09/28 09:26:44;;;;;;;223.40;138.15;;;34.30;88.50;;;;;;5084142;28;20359;-66
2023/09/28 09:29:12;;;;;;;233.27;139.20;;;34.30;89.40;;;;;;5081797;28;20024;-66
2023/09/28 09:31:43;;;;;;;224.98;138.18;;;34.30;88.90;;;;;;5086863;28;20413;-65
2023/09/28 09:34:14;;;;;;;229.88;144.48;;;34.30;89.20;;;;;;5089876;28;20093;-65
2023/09/28 09:36:41;;;;;;;246.10;152.03;;;34.20;89.40;;;;;;5091067;28;20020;-63
2023/09/28 09:39:08;;;;;;;250.77;154.27;;;34.10;89.40;;;;;;5090954;28;20016;-66
2023/09/28 09:41:45;;;;;;;257.20;163.43;;;34.10;89.70;;;;;;5091031;28;20024;-65
2023/09/28 09:44:18;;;;;;;256.02;168.23;;;34.00;89.90;;;;;;5091123;28;20054;-64
2023/09/28 09:46:49;;;;;;;284.58;168.05;;;33.90;89.60;;;;;;5090738;28;20077;-64
2023/09/28 09:49:16;;;;;;;;;;;33.90;89.70;;;;;;5087803;28;20024;-66
2023/09/28 09:51:47;;;;;;;253.73;157.15;;;33.90;89.70;;;;;;5085193;28;19935;-66
2023/09/28 09:54:16;;;;;;;228.85;151.10;;;33.90;89.70;;;;;;5087463;28;20028;-66
2023/09/28 09:56:46;;;;;;;238.50;150.52;;;33.90;90.20;;;;;;5084333;28;20051;-66
2023/09/28 09:59:16;;;;;;;234.30;149.48;;;33.90;90.20;;;;;;5082494;28;20085;-65
2023/09/28 10:01:48;;;;;;;225.52;144.23;;;33.90;90.30;;;;;;5082189;28;20114;-66
2023/09/28 10:04:18;;;;;;;223.32;135.45;;;33.90;90.70;;;;;;5082156;28;20036;-65
2023/09/28 10:06:58;;;;;;;201.30;127.90;;;33.90;90.70;;;;;;5089486;28;20035;-62
2023/09/28 10:09:24;;;;;;;193.23;120.60;;;33.80;90.70;;;;;;5087196;28;20032;-65
2023/09/28 10:11:52;;;;;;;183.82;118.18;;;33.70;90.60;;;;;;5081685;28;20049;-65
2023/09/28 10:14:21;;;;;;;195.88;123.85;;;33.70;91.00;;;;;;5081737;28;20016;-64
2023/09/28 10:16:53;;;;;;;207.30;130.07;;;33.60;90.90;;;;;;5081522;28;20070;-65
2023/09/28 10:19:24;;;;;;;211.68;129.23;;;33.60;91.40;;;;;;5082712;28;20467;-64
2023/09/28 10:21:52;;;;;;;207.02;128.07;;;33.60;91.30;;;;;;5084022;28;20032;-66
2023/09/28 10:24:31;;;;;;;210.65;125.50;;;33.60;91.40;;;;;;5085393;28;20028;-65
2023/09/28 10:27:06;;;;;;;204.73;128.82;;;33.50;91.60;;;;;;5086922;28;20023;-67
2023/09/28 10:29:34;;;;;;;211.73;132.48;;;33.50;91.80;;;;;;5086209;28;20021;-67
2023/09/28 10:32:03;;;;;;;207.68;123.18;;;33.50;91.90;;;;;;5086597;28;20020;-67
2023/09/28 10:34:30;;;;;;;201.88;121.53;;;33.40;92.10;;;;;;5088174;28;20028;-66
2023/09/28 10:37:18;;;;;;;205.05;124.63;;;33.40;91.90;;;;;;5087389;28;20133;-66
2023/09/28 10:39:55;;;;;;;204.45;125.05;;;33.30;91.80;;;;;;5086790;28;20081;-66
2023/09/28 10:42:22;;;;;;;223.77;127.18;;;33.20;92.00;;;;;;5086515;28;20021;-66
2023/09/28 10:44:51;;;;;;;224.82;133.70;;;33.20;92.20;;;;;;5080385;28;20025;-66
2023/09/28 10:47:19;;;;;;;222.32;134.35;;;33.20;92.30;;;;;;5076657;28;20391;-66
2023/09/28 10:49:45;;;;;;;229.88;131.30;;;33.00;92.30;;;;;;5086888;28;20032;-64
2023/09/28 10:52:12;;;;;;;220.77;126.32;;;33.00;92.70;;;;;;5097134;28;20068;-63
2023/09/28 10:54:39;;;;;;;227.50;133.20;;;33.00;92.90;;;;;;5095329;28;20030;-66
2023/09/28 10:57:06;;;;;;;239.13;133.18;;;32.90;92.60;;;;;;5087757;28;21310;-67
2023/09/28 10:59:36;;;;;;;232.32;139.82;;;32.80;93.00;;;;;;5085159;28;20032;-66
2023/09/28 11:02:03;;;;;;;207.95;128.95;;;32.80;92.90;;;;;;5086107;28;20551;-66
2023/09/28 11:04:31;;;;;;;205.93;127.00;;;32.70;93.10;;;;;;5087026;28;20024;-66
2023/09/28 11:07:00;;;;;;;211.30;123.53;;;32.70;93.10;;;;;;5085742;28;20021;-66
2023/09/28 11:09:29;;;;;;;214.98;130.10;;;32.70;93.30;;;;;;5085746;28;20048;-66
2023/09/28 11:11:56;;;;;;;201.40;118.53;;;32.60;93.10;;;;;;5085674;28;20128;-66
2023/09/28 11:14:25;;;;;;;193.40;118.45;;;32.60;93.20;;;;;;5085248;28;20028;-67
2023/09/28 11:16:52;;;;;;;201.32;122.40;;;32.50;93.30;;;;;;5084863;28;20478;-68
2023/09/28 11:19:22;;;;;;;201.82;123.65;;;32.50;93.50;;;;;;5085646;28;20039;-67
2023/09/28 11:21:49;;;;;;;208.50;124.78;;;32.50;93.70;;;;;;5086442;28;20029;-67
2023/09/28 11:24:16;;;;;;;207.23;125.07;;;32.50;94.00;;;;;;5092635;28;20086;-66
2023/09/28 11:26:43;;;;;;;208.07;125.40;;;32.40;94.00;;;;;;5090108;28;20046;-68
2023/09/28 11:29:10;;;;;;;202.80;122.65;;;32.40;94.10;;;;;;5088125;28;20018;-66
2023/09/28 11:31:47;;;;;;;202.00;121.13;;;32.30;94.10;;;;;;5088009;28;20110;-67
2023/09/28 11:34:14;;;;;;;210.23;120.53;;;32.30;94.10;;;;;;5084633;28;20363;-64
2023/09/28 11:36:41;;;;;;;205.68;121.22;;;32.20;94.00;;;;;;5087900;28;20107;-65
2023/09/28 11:39:08;;;;;;;203.90;119.00;;;32.20;94.10;;;;;;5083613;28;20107;-64
2023/09/28 11:41:34;;;;;;;203.27;123.10;;;32.20;94.30;;;;;;5084799;28;20016;-63
2023/09/28 11:44:01;;;;;;;210.52;126.65;;;32.20;94.20;;;;;;5085796;28;20458;-62
2023/09/28 11:46:30;;;;;;;204.10;120.97;;;32.20;94.50;;;;;;5085302;28;20077;-64
2023/09/28 11:49:16;;;;;;;217.32;122.03;;;32.20;94.70;;;;;;5085241;28;20095;-64
2023/09/28 11:51:43;;;;;;;209.88;123.30;;;32.20;94.60;;;;;;5086214;28;20231;-65
2023/09/28 11:54:14;;;;;;;206.57;121.47;;;32.10;94.60;;;;;;5087244;28;20025;-64
2023/09/28 11:56:41;;;;;;;211.05;124.60;;;32.10;94.60;;;;;;5096877;28;20432;-63
2023/09/28 11:59:09;;;;;;;217.77;127.20;;;32.00;94.90;;;;;;5082718;28;20662;-63
2023/09/28 12:01:36;;;;;;;212.20;122.82;;;32.00;94.70;;;;;;5104263;22;20093;-65
2023/09/28 12:04:02;;;;;;;220.32;126.25;;;32.00;95.00;;;;;;5084879;28;20028;-65
2023/09/28 12:06:31;;;;;;;243.25;137.90;;;31.90;94.90;;;;;;5083093;28;20023;-66
2023/09/28 12:08:57;;;;;;;249.82;143.43;;;31.90;94.90;;;;;;5081337;28;20032;-66
2023/09/28 12:11:24;;;;;;;283.92;158.25;;;31.80;95.30;;;;;;5092057;28;20023;-66
2023/09/28 12:13:51;;;;;;;307.90;180.20;;;31.80;95.40;;;;;;5091046;28;20020;-66
2023/09/28 12:16:20;;;;;;;366.55;214.75;;;31.80;95.60;;;;;;5081059;28;20028;-66
2023/09/28 12:18:46;;;;;;;381.98;230.00;;;31.70;95.70;;;;;;5093570;28;20035;-66
2023/09/28 12:21:14;;;;;;;376.90;211.70;;;31.70;95.70;;;;;;5093514;28;20024;-64
2023/09/28 12:23:40;;;;;;;342.00;198.77;;;31.70;96.00;;;;;;5090508;28;20020;-65
2023/09/28 12:26:07;;;;;;;307.20;179.60;;;31.60;96.10;;;;;;5081120;28;20016;-63